createdAt,value
2017-07-21T00:01:27.457Z,14.83
2017-07-21T00:03:55.001Z,16.63
2017-07-21T00:06:23.314Z,15.73
2017-07-21T00:08:50.879Z,16.40
2017-07-21T00:11:18.433Z,16.20
2017-07-21T00:13:45.967Z,16.83
2017-07-21T00:16:13.569Z,15.77
2017-07-21T00:18:41.217Z,16.20
2017-07-21T00:21:08.782Z,15.37
2017-07-21T00:23:36.435Z,16.60
2017-07-21T00:26:03.991Z,16.73
2017-07-21T00:28:31.557Z,15.67
2017-07-21T00:30:59.118Z,16.97
2017-07-21T00:33:26.672Z,15.40
2017-07-21T00:35:54.214Z,15.77
2017-07-21T00:38:21.798Z,15.47
2017-07-21T00:40:49.454Z,16.13
2017-07-21T00:43:17.018Z,16.70
2017-07-21T00:45:44.541Z,15.67
2017-07-21T00:48:12.953Z,16.97
2017-07-21T00:50:40.482Z,17.40
2017-07-21T00:53:08.806Z,15.53
2017-07-21T00:55:36.457Z,14.93
2017-07-21T00:58:03.985Z,14.70
2017-07-21T01:00:31.586Z,15.80
2017-07-21T01:02:59.234Z,16.57
2017-07-21T01:05:26.895Z,16.77
2017-07-21T01:07:54.426Z,16.73
2017-07-21T01:10:21.968Z,16.30
2017-07-21T01:12:50.293Z,15.97
2017-07-21T01:15:17.956Z,16.93
2017-07-21T01:17:45.514Z,19.83
2017-07-21T01:20:13.041Z,26.20
2017-07-21T01:22:41.349Z,16.80
2017-07-21T01:25:08.922Z,16.33
2017-07-21T01:27:36.455Z,16.90
2017-07-21T01:30:04.026Z,15.93
2017-07-21T01:32:32.110Z,16.80
2017-07-21T01:34:59.638Z,16.37
2017-07-21T01:37:27.224Z,16.63
2017-07-21T01:39:54.770Z,15.60
2017-07-21T01:42:22.439Z,17.83
2017-07-21T01:44:49.961Z,16.17
2017-07-21T01:47:18.483Z,15.67
2017-07-21T01:49:46.143Z,16.60
2017-07-21T01:52:13.705Z,16.07
2017-07-21T01:54:41.275Z,16.83
2017-07-21T01:57:08.797Z,18.90
2017-07-21T01:59:36.483Z,18.73
2017-07-21T02:02:04.049Z,20.97
2017-07-21T02:04:31.606Z,19.50
2017-07-21T02:06:59.129Z,18.03
2017-07-21T02:09:27.441Z,18.03
2017-07-21T02:11:54.969Z,18.07
2017-07-21T02:14:23.260Z,18.60
2017-07-21T02:16:50.834Z,18.80
2017-07-21T02:19:18.356Z,18.80
2017-07-21T02:21:46.644Z,22.90
2017-07-21T02:24:14.190Z,22.50
2017-07-21T02:26:42.510Z,23.57
2017-07-21T02:29:10.175Z,20.80
2017-07-21T02:31:37.717Z,20.90
2017-07-21T02:34:05.302Z,18.00
2017-07-21T02:36:32.854Z,19.60
2017-07-21T02:39:00.519Z,18.20
2017-07-21T02:41:28.046Z,18.83
2017-07-21T02:43:55.572Z,19.33
2017-07-21T02:46:23.114Z,22.13
2017-07-21T02:48:50.638Z,21.57
2017-07-21T02:51:18.317Z,22.80
2017-07-21T02:53:45.973Z,22.67
2017-07-21T02:56:13.542Z,20.90
2017-07-21T02:58:41.094Z,22.87
2017-07-21T03:01:08.642Z,22.87
2017-07-21T03:03:36.169Z,20.40
2017-07-21T03:06:04.465Z,23.57
2017-07-21T03:08:32.049Z,20.20
2017-07-21T03:10:59.573Z,21.60
2017-07-21T03:13:27.881Z,20.10
2017-07-21T03:15:55.445Z,21.30
2017-07-21T03:18:23.005Z,22.77
2017-07-21T03:20:50.533Z,21.27
2017-07-21T03:23:24.061Z,20.33
2017-07-21T03:25:51.723Z,21.47
2017-07-21T03:28:19.248Z,21.10
2017-07-21T03:30:47.661Z,22.57
2017-07-21T03:33:15.325Z,21.50
2017-07-21T03:35:43.232Z,20.93
2017-07-21T03:38:10.787Z,25.50
2017-07-21T03:40:39.090Z,22.17
2017-07-21T03:43:07.383Z,22.10
2017-07-21T03:45:34.934Z,20.97
2017-07-21T03:48:03.244Z,20.80
2017-07-21T03:50:30.774Z,19.07
2017-07-21T03:52:58.321Z,19.53
2017-07-21T03:55:26.622Z,19.70
2017-07-21T03:57:54.300Z,22.70
2017-07-21T04:00:21.845Z,20.77
2017-07-21T04:02:49.377Z,21.13
2017-07-21T04:05:17.721Z,21.13
2017-07-21T04:07:45.269Z,19.30
2017-07-21T04:10:12.821Z,23.80
2017-07-21T04:12:40.357Z,23.47
2017-07-21T04:15:07.897Z,24.20
2017-07-21T04:17:36.311Z,22.20
2017-07-21T04:20:04.020Z,22.47
2017-07-21T04:22:32.208Z,22.90
2017-07-21T04:25:00.492Z,26.53
2017-07-21T04:27:28.784Z,25.07
2017-07-21T04:29:56.324Z,22.40
2017-07-21T04:32:24.744Z,19.40
2017-07-21T04:34:52.271Z,19.60
2017-07-21T04:37:20.690Z,19.90
2017-07-21T04:39:48.220Z,18.00
2017-07-21T04:42:15.754Z,18.00
2017-07-21T04:44:44.062Z,17.63
2017-07-21T04:47:11.658Z,17.70
2017-07-21T04:49:39.300Z,17.30
2017-07-21T04:52:06.840Z,17.53
2017-07-21T04:54:34.422Z,14.93
2017-07-21T04:57:01.950Z,15.13
2017-07-21T04:59:30.366Z,16.40
2017-07-21T05:01:57.894Z,14.40
2017-07-21T05:04:25.482Z,14.33
2017-07-21T05:06:53.030Z,14.40
2017-07-21T05:09:20.701Z,14.13
2017-07-21T05:11:48.265Z,13.53
2017-07-21T05:14:15.814Z,11.93
2017-07-21T05:16:43.345Z,11.70
2017-07-21T05:19:11.649Z,12.43
2017-07-21T05:21:39.189Z,10.80
2017-07-21T05:24:06.713Z,11.80
2017-07-21T05:26:34.333Z,11.27
2017-07-21T05:29:01.898Z,11.70
2017-07-21T05:31:29.430Z,10.80
2017-07-21T05:33:56.957Z,12.23
2017-07-21T05:36:24.497Z,11.67
2017-07-21T05:38:52.035Z,12.80
2017-07-21T05:41:19.590Z,14.50
2017-07-21T05:43:47.140Z,15.10
2017-07-21T05:46:14.714Z,16.50
2017-07-21T05:48:42.377Z,15.03
2017-07-21T05:51:09.919Z,13.70
2017-07-21T05:53:37.445Z,15.40
2017-07-21T05:56:05.870Z,15.40
2017-07-21T05:58:33.442Z,16.63
2017-07-21T06:01:00.966Z,14.93
2017-07-21T06:03:28.494Z,16.73
2017-07-21T06:05:56.118Z,17.57
2017-07-21T06:08:23.652Z,20.10
2017-07-21T06:10:51.329Z,19.40
2017-07-21T06:13:18.886Z,20.30
2017-07-21T06:15:46.451Z,19.33
2017-07-21T06:18:13.973Z,18.20
2017-07-21T06:20:42.286Z,19.00
2017-07-21T06:23:09.849Z,18.50
2017-07-21T06:25:37.372Z,18.07
2017-07-21T06:28:04.939Z,21.20
2017-07-21T06:30:32.469Z,19.37
2017-07-21T06:32:59.993Z,21.17
2017-07-21T06:35:27.541Z,21.60
2017-07-21T06:37:55.065Z,20.53
2017-07-21T06:40:23.361Z,23.40
2017-07-21T06:42:50.908Z,18.57
2017-07-21T06:45:18.449Z,19.17
2017-07-21T06:47:46.158Z,18.63
2017-07-21T06:50:13.706Z,18.50
2017-07-21T06:52:41.232Z,17.13
2017-07-21T06:55:09.520Z,19.33
2017-07-21T06:57:38.036Z,15.80
2017-07-21T07:00:05.573Z,17.63
2017-07-21T07:02:33.162Z,16.17
2017-07-21T07:05:00.710Z,18.13
2017-07-21T07:07:28.241Z,15.03
2017-07-21T07:09:56.534Z,17.33
2017-07-21T07:12:24.088Z,17.60
2017-07-21T07:14:51.678Z,17.53
2017-07-21T07:17:19.210Z,17.20
2017-07-21T07:19:46.893Z,16.00
2017-07-21T07:22:14.417Z,17.17
2017-07-21T07:24:42.832Z,18.23
2017-07-21T07:27:10.493Z,17.37
2017-07-21T07:29:38.017Z,18.13
2017-07-21T07:32:06.330Z,18.10
2017-07-21T07:34:33.881Z,19.23
2017-07-21T07:37:01.413Z,19.50
2017-07-21T07:39:29.701Z,18.47
2017-07-21T07:41:57.266Z,18.17
2017-07-21T07:44:24.947Z,19.57
2017-07-21T07:46:52.976Z,19.10
2017-07-21T07:49:21.404Z,18.53
2017-07-21T07:51:49.062Z,18.90
2017-07-21T07:54:16.586Z,19.50
2017-07-21T07:56:44.996Z,20.27
2017-07-21T07:59:12.661Z,17.57
2017-07-21T08:01:40.229Z,18.87
2017-07-21T08:04:07.780Z,18.13
2017-07-21T08:06:35.304Z,18.47
2017-07-21T08:09:03.599Z,18.00
2017-07-21T08:11:31.182Z,16.97
2017-07-21T08:13:58.708Z,20.63
2017-07-21T08:16:26.296Z,17.00
2017-07-21T08:18:53.961Z,20.23
2017-07-21T08:21:21.525Z,19.50
2017-07-21T08:23:49.075Z,18.10
2017-07-21T08:26:16.646Z,19.33
2017-07-21T08:28:44.169Z,19.73
2017-07-21T08:31:11.693Z,20.97
2017-07-21T08:33:39.317Z,18.13
2017-07-21T08:36:06.853Z,19.30
2017-07-21T08:38:34.381Z,18.13
2017-07-21T08:41:02.097Z,17.63
2017-07-21T08:43:29.664Z,19.30
2017-07-21T08:45:57.185Z,18.80
2017-07-21T08:48:25.599Z,17.70
2017-07-21T08:50:53.166Z,19.63
2017-07-21T08:53:20.684Z,17.23
2017-07-21T08:55:48.993Z,17.93
2017-07-21T08:58:16.523Z,17.93
2017-07-21T09:00:44.056Z,15.83
2017-07-21T09:03:11.676Z,16.20
2017-07-21T09:05:39.200Z,15.30
2017-07-21T09:08:07.508Z,14.93
2017-07-21T09:10:35.066Z,15.93
2017-07-21T09:13:02.728Z,14.70
2017-07-21T09:15:30.250Z,14.30
2017-07-21T09:17:58.570Z,14.90
2017-07-21T09:20:26.228Z,12.10
2017-07-21T09:22:53.789Z,9.50
2017-07-21T09:25:21.350Z,14.87
2017-07-21T09:27:48.877Z,13.37
2017-07-21T09:30:16.409Z,9.97
2017-07-21T09:32:44.128Z,11.20
2017-07-21T09:35:11.650Z,9.83
2017-07-21T09:37:39.961Z,10.23
2017-07-21T09:40:07.528Z,8.60
2017-07-21T09:42:35.045Z,9.80
2017-07-21T09:45:03.325Z,7.17
2017-07-21T09:47:30.924Z,10.50
2017-07-21T09:49:58.444Z,9.60
2017-07-21T09:52:25.966Z,7.40
2017-07-21T09:54:53.700Z,10.00
2017-07-21T09:57:21.216Z,7.87
2017-07-21T09:59:49.499Z,8.43
2017-07-21T10:02:17.200Z,8.37
2017-07-21T10:04:44.220Z,9.80
2017-07-21T10:07:11.740Z,9.00
2017-07-21T10:09:39.290Z,8.90
2017-07-21T10:12:06.805Z,6.10
2017-07-21T10:14:34.386Z,6.03
2017-07-21T10:17:01.934Z,6.80
2017-07-21T10:19:29.507Z,6.57
2017-07-21T10:21:57.061Z,6.77
2017-07-21T10:24:24.623Z,6.00
2017-07-21T10:26:52.193Z,5.33
2017-07-21T10:29:19.713Z,6.23
2017-07-21T10:31:47.261Z,7.30
2017-07-21T10:34:14.861Z,5.57
2017-07-21T10:36:42.427Z,5.33
2017-07-21T10:39:09.965Z,6.23
2017-07-21T10:41:37.545Z,5.47
2017-07-21T10:44:05.200Z,5.20
2017-07-21T10:46:32.733Z,6.00
2017-07-21T10:49:00.329Z,4.50
2017-07-21T10:51:27.850Z,4.70
2017-07-21T10:53:56.258Z,4.87
2017-07-21T10:56:23.784Z,4.63
2017-07-21T10:58:52.109Z,4.67
2017-07-21T11:01:19.758Z,5.50
2017-07-21T11:03:47.422Z,5.33
2017-07-21T11:06:14.938Z,4.53
2017-07-21T11:08:42.478Z,4.37
2017-07-21T11:11:09.998Z,4.37
2017-07-21T11:13:37.553Z,4.57
2017-07-21T11:16:06.243Z,4.83
2017-07-21T11:18:34.532Z,4.43
2017-07-21T11:21:03.401Z,4.13
2017-07-21T11:23:30.938Z,4.03
2017-07-21T11:25:59.809Z,6.40
2017-07-21T11:28:27.329Z,4.40
2017-07-21T11:30:54.977Z,4.20
2017-07-21T11:33:23.853Z,3.57
2017-07-21T11:35:52.725Z,3.27
2017-07-21T11:38:21.621Z,3.27
2017-07-21T11:40:50.553Z,4.00
2017-07-21T11:43:19.440Z,3.40
2017-07-21T11:45:48.333Z,3.67
2017-07-21T11:48:17.200Z,3.90
2017-07-21T11:50:46.068Z,3.50
2017-07-21T11:53:14.960Z,3.23
2017-07-21T11:55:43.824Z,3.07
2017-07-21T11:58:12.710Z,3.10
2017-07-21T12:00:41.604Z,3.03
2017-07-21T12:03:10.472Z,2.97
2017-07-21T12:05:39.336Z,3.22
2017-07-21T12:08:08.258Z,2.83
2017-07-21T12:10:36.926Z,2.92
2017-07-21T12:13:04.490Z,2.85
2017-07-21T12:15:32.028Z,2.70
2017-07-21T12:17:59.551Z,2.80
2017-07-21T12:20:27.085Z,3.17
2017-07-21T12:22:54.750Z,3.00
2017-07-21T12:25:23.046Z,2.80
2017-07-21T12:27:50.682Z,2.72
2017-07-21T12:30:18.239Z,3.08
2017-07-21T12:32:45.838Z,2.72
2017-07-21T12:35:14.182Z,3.17
2017-07-21T12:37:41.721Z,3.30
2017-07-21T12:40:09.279Z,3.90
2017-07-21T12:42:38.171Z,16.33
2017-07-21T12:45:07.077Z,2.87
2017-07-21T12:47:35.941Z,3.00
2017-07-21T12:50:04.805Z,3.10
2017-07-21T12:52:33.745Z,3.08
2017-07-21T12:55:02.621Z,2.78
2017-07-21T12:57:31.524Z,2.62
2017-07-21T13:00:00.409Z,3.00
2017-07-21T13:02:29.344Z,3.35
2017-07-21T13:04:58.212Z,2.95
2017-07-21T13:07:27.189Z,3.40
2017-07-21T13:09:56.067Z,3.33
2017-07-21T13:12:24.980Z,3.35
2017-07-21T13:14:53.956Z,3.45
2017-07-21T13:17:22.818Z,3.60
2017-07-21T13:19:50.344Z,3.87
2017-07-21T13:22:17.884Z,3.42
2017-07-21T13:24:45.410Z,3.33
2017-07-21T13:27:12.934Z,3.08
2017-07-21T13:29:41.242Z,3.45
2017-07-21T13:32:08.762Z,3.15
2017-07-21T13:34:37.063Z,3.00
2017-07-21T13:37:04.605Z,2.95
2017-07-21T13:39:32.905Z,3.00
2017-07-21T13:42:00.425Z,2.90
2017-07-21T13:44:27.961Z,2.67
2017-07-21T13:46:55.474Z,3.03
2017-07-21T13:49:24.401Z,3.70
2017-07-21T13:51:53.385Z,3.10
2017-07-21T13:54:22.293Z,3.20
2017-07-21T13:56:51.157Z,3.10
2017-07-21T13:59:20.041Z,3.45
2017-07-21T14:01:48.907Z,3.42
2017-07-21T14:04:17.780Z,3.12
2017-07-21T14:06:46.708Z,3.12
2017-07-21T14:09:15.572Z,3.37
2017-07-21T14:11:44.441Z,2.92
2017-07-21T14:14:13.320Z,3.70
2017-07-21T14:16:42.186Z,2.92
2017-07-21T14:19:09.706Z,3.00
2017-07-21T14:21:38.022Z,2.78
2017-07-21T14:24:05.578Z,2.97
2017-07-21T14:26:33.102Z,2.85
2017-07-21T14:29:01.416Z,2.95
2017-07-21T14:31:28.936Z,2.92
2017-07-21T14:33:57.807Z,3.22
2017-07-21T14:36:26.688Z,2.87
2017-07-21T14:38:55.656Z,2.87
2017-07-21T14:41:24.522Z,3.05
2017-07-21T14:43:52.198Z,2.62
2017-07-21T14:46:19.761Z,3.10
2017-07-21T14:48:47.318Z,2.60
2017-07-21T14:51:14.857Z,2.70
2017-07-21T14:53:42.389Z,2.70
2017-07-21T14:56:10.674Z,3.05
2017-07-21T14:58:39.089Z,3.05
2017-07-21T15:01:06.609Z,2.95
2017-07-21T15:03:34.925Z,2.53
2017-07-21T15:06:02.469Z,3.00
2017-07-21T15:08:30.146Z,2.80
2017-07-21T15:10:57.707Z,2.90
2017-07-21T15:13:25.247Z,2.80
2017-07-21T15:15:52.772Z,3.20
2017-07-21T15:18:21.057Z,2.75
2017-07-21T15:20:49.379Z,2.58
2017-07-21T15:23:16.905Z,3.08
2017-07-21T15:25:44.448Z,2.85
2017-07-21T15:28:12.792Z,3.08
2017-07-21T15:30:40.328Z,3.10
2017-07-21T15:33:07.844Z,5.15
2017-07-21T15:35:36.174Z,3.40
2017-07-21T15:38:03.694Z,3.17
2017-07-21T15:40:31.280Z,3.70
2017-07-21T15:42:58.842Z,3.20
2017-07-21T15:45:26.364Z,3.40
2017-07-21T15:47:55.242Z,3.40
2017-07-21T15:50:24.124Z,3.27
2017-07-21T15:52:53.177Z,3.47
2017-07-21T15:55:22.167Z,5.73
2017-07-21T15:57:49.727Z,3.70
2017-07-21T16:00:17.245Z,3.73
2017-07-21T16:02:45.533Z,5.00
2017-07-21T16:05:13.078Z,5.40
2017-07-21T16:07:41.388Z,4.40
2017-07-21T16:10:08.973Z,3.50
2017-07-21T16:12:36.513Z,3.57
2017-07-21T16:15:04.175Z,3.43
2017-07-21T16:17:31.732Z,3.33
2017-07-21T16:19:59.273Z,3.63
2017-07-21T16:22:26.789Z,3.80
2017-07-21T16:24:54.416Z,3.53
2017-07-21T16:27:21.975Z,3.40
2017-07-21T16:29:49.539Z,5.37
2017-07-21T16:32:18.405Z,3.63
2017-07-21T16:34:47.302Z,3.80
2017-07-21T16:37:16.229Z,3.23
2017-07-21T16:39:45.104Z,4.00
2017-07-21T16:42:14.084Z,4.60
2017-07-21T16:44:42.950Z,3.83
2017-07-21T16:47:11.355Z,5.00
2017-07-21T16:49:38.914Z,3.47
2017-07-21T16:52:07.811Z,3.83
2017-07-21T16:54:36.796Z,3.43
2017-07-21T16:57:06.031Z,4.00
2017-07-21T16:59:35.228Z,4.50
2017-07-21T17:02:04.205Z,4.40
2017-07-21T17:04:33.097Z,6.80
2017-07-21T17:07:02.663Z,5.23
2017-07-21T17:09:31.675Z,4.00
2017-07-21T17:12:00.666Z,3.27
2017-07-21T17:14:29.572Z,3.60
2017-07-21T17:16:58.467Z,3.93
2017-07-21T17:19:27.353Z,4.23
2017-07-21T17:21:56.230Z,4.37
2017-07-21T17:24:25.139Z,4.13
2017-07-21T17:26:54.036Z,3.73
2017-07-21T17:29:22.897Z,3.27
2017-07-21T17:31:51.773Z,4.20
2017-07-21T17:34:20.662Z,3.50
2017-07-21T17:36:49.589Z,3.27
2017-07-21T17:39:18.461Z,3.40
2017-07-21T17:41:47.511Z,3.73
2017-07-21T17:44:16.461Z,4.23
2017-07-21T17:46:45.329Z,4.30
2017-07-21T17:49:14.247Z,4.17
2017-07-21T17:51:43.118Z,3.60
2017-07-21T17:54:12.027Z,4.20
2017-07-21T17:56:40.913Z,5.17
2017-07-21T17:59:09.897Z,4.60
2017-07-21T18:01:38.803Z,3.73
2017-07-21T18:04:07.900Z,4.23
2017-07-21T18:06:36.874Z,3.93
2017-07-21T18:09:05.780Z,3.70
2017-07-21T18:11:34.770Z,3.60
2017-07-21T18:14:03.642Z,4.03
2017-07-21T18:16:32.776Z,4.23
2017-07-21T18:19:01.770Z,4.33
2017-07-21T18:21:30.669Z,3.90
2017-07-21T18:23:59.726Z,3.83
2017-07-21T18:26:28.819Z,4.13
2017-07-21T18:28:57.810Z,3.50
2017-07-21T18:31:26.673Z,3.67
2017-07-21T18:33:55.677Z,3.93
2017-07-21T18:36:24.553Z,4.07
2017-07-21T18:38:53.421Z,3.27
2017-07-21T18:41:22.470Z,4.00
2017-07-21T18:43:51.336Z,4.17
2017-07-21T18:46:20.354Z,4.10
2017-07-21T18:48:49.245Z,3.90
2017-07-21T18:51:18.112Z,4.47
2017-07-21T18:53:47.042Z,4.13
2017-07-21T18:56:15.936Z,4.73
2017-07-21T18:58:44.805Z,5.77
2017-07-21T19:01:13.669Z,4.90
2017-07-21T19:03:42.706Z,4.60
2017-07-21T19:06:12.601Z,4.10
2017-07-21T19:08:41.490Z,4.40
2017-07-21T19:11:10.402Z,31.97
2017-07-21T19:13:39.276Z,9.70
2017-07-21T19:16:08.148Z,9.27
2017-07-21T19:18:37.053Z,6.37
2017-07-21T19:21:05.920Z,4.83
2017-07-21T19:23:35.636Z,4.87
2017-07-21T19:26:04.602Z,4.70
2017-07-21T19:28:33.469Z,5.07
2017-07-21T19:31:02.449Z,4.60
2017-07-21T19:33:31.373Z,5.17
2017-07-21T19:36:00.416Z,5.20
2017-07-21T19:38:29.290Z,5.20
2017-07-21T19:40:58.217Z,5.10
2017-07-21T19:43:27.085Z,5.20
2017-07-21T19:45:55.955Z,4.30
2017-07-21T19:48:24.849Z,5.30
2017-07-21T19:50:53.708Z,4.93
2017-07-21T19:53:22.733Z,5.90
2017-07-21T19:55:51.625Z,5.57
2017-07-21T19:58:20.549Z,5.93
2017-07-21T20:00:49.523Z,5.30
2017-07-21T20:03:18.429Z,6.20
2017-07-21T20:05:47.296Z,6.10
2017-07-21T20:08:16.211Z,6.20
2017-07-21T20:10:45.140Z,6.17
2017-07-21T20:13:14.012Z,6.37
2017-07-21T20:15:42.902Z,6.77
2017-07-21T20:18:11.828Z,6.00
2017-07-21T20:20:40.792Z,6.10
2017-07-21T20:23:10.532Z,6.23
2017-07-21T20:25:39.428Z,5.80
2017-07-21T20:28:08.446Z,7.00
2017-07-21T20:30:37.360Z,6.83
2017-07-21T20:33:06.432Z,7.00
2017-07-21T20:35:35.314Z,6.50
2017-07-21T20:38:04.224Z,6.60
2017-07-21T20:40:33.216Z,7.00
2017-07-21T20:43:02.085Z,6.90
2017-07-21T20:45:30.997Z,7.37
2017-07-21T20:47:59.903Z,6.73
2017-07-21T20:50:28.769Z,6.67
2017-07-21T20:52:58.203Z,6.00
2017-07-21T20:55:27.087Z,5.40
2017-07-21T20:57:56.013Z,6.40
2017-07-21T21:00:24.959Z,5.30
2017-07-21T21:02:53.881Z,5.03
2017-07-21T21:05:22.757Z,5.90
2017-07-21T21:07:51.621Z,5.20
2017-07-21T21:10:20.529Z,4.43
2017-07-21T21:12:49.415Z,4.80
2017-07-21T21:15:18.297Z,3.53
2017-07-21T21:17:47.182Z,3.00
2017-07-21T21:20:16.092Z,3.10
2017-07-21T21:22:45.058Z,2.70
2017-07-21T21:25:14.056Z,2.40
2017-07-21T21:27:43.044Z,2.27
2017-07-21T21:30:11.944Z,1.97
2017-07-21T21:32:40.842Z,1.40
2017-07-21T21:35:09.725Z,1.73
2017-07-21T21:37:38.591Z,1.73
2017-07-21T21:40:07.513Z,1.53
2017-07-21T21:42:36.387Z,1.37
2017-07-21T21:45:05.256Z,2.57
2017-07-21T21:47:34.182Z,1.40
2017-07-21T21:50:03.162Z,1.20
2017-07-21T21:52:32.031Z,1.30
2017-07-21T21:55:01.045Z,1.40
2017-07-21T21:57:29.943Z,1.47
2017-07-21T21:59:58.821Z,1.70
2017-07-21T22:02:27.705Z,1.53
2017-07-21T22:04:56.571Z,1.33
2017-07-21T22:07:25.435Z,1.00
2017-07-21T22:09:54.333Z,1.40
2017-07-21T22:12:23.245Z,1.30
2017-07-21T22:14:52.185Z,1.20
2017-07-21T22:17:21.163Z,1.20
2017-07-21T22:19:50.025Z,1.30
2017-07-21T22:22:18.905Z,1.10
2017-07-21T22:24:47.809Z,1.33
2017-07-21T22:27:16.738Z,1.10
2017-07-21T22:29:45.636Z,1.30
2017-07-21T22:32:14.528Z,1.43
2017-07-21T22:34:43.409Z,1.60
2017-07-21T22:37:12.306Z,1.20
2017-07-21T22:39:41.281Z,1.20
2017-07-21T22:42:10.149Z,1.37
2017-07-21T22:44:39.083Z,1.30
2017-07-21T22:47:07.960Z,1.30
2017-07-21T22:49:36.860Z,1.50
2017-07-21T22:52:05.726Z,1.37
2017-07-21T22:54:34.638Z,1.67
2017-07-21T22:57:03.529Z,0.90
2017-07-21T22:59:32.399Z,1.40
2017-07-21T23:02:01.318Z,1.40
2017-07-21T23:04:30.189Z,1.37
2017-07-21T23:06:59.058Z,1.30
2017-07-21T23:09:27.947Z,1.40
2017-07-21T23:11:56.877Z,1.50
2017-07-21T23:14:25.856Z,1.40
2017-07-21T23:16:54.733Z,1.10
2017-07-21T23:19:23.605Z,1.10
2017-07-21T23:21:52.537Z,1.13
2017-07-21T23:24:21.433Z,1.30
2017-07-21T23:26:50.329Z,1.33
2017-07-21T23:29:19.304Z,1.37
2017-07-21T23:31:48.181Z,1.30
2017-07-21T23:34:17.052Z,1.57
2017-07-21T23:36:45.992Z,1.30
2017-07-21T23:39:14.892Z,1.20
2017-07-21T23:41:43.860Z,1.50
2017-07-21T23:44:12.724Z,1.60
2017-07-21T23:46:41.612Z,1.40
2017-07-21T23:49:10.483Z,1.63
2017-07-21T23:51:39.450Z,1.40
2017-07-21T23:54:08.433Z,1.63
2017-07-21T23:56:37.410Z,1.63
2017-07-21T23:59:06.322Z,1.63
